sensor_id;sensor_type;location;lat;lon;timestamp;pressure;altitude;pressure_sealevel;temperature;humidity
60101;BME280;45978;53.646;55.930;2022-10-31T00:00:01;97882.44;;;3.78;99.64
60101;BME280;45978;53.646;55.930;2022-10-31T00:01:17;97870.50;;;3.72;99.18
60101;BME280;45978;53.646;55.930;2022-10-31T00:02:20;97884.13;;;3.79;99.02
60101;BME280;45978;53.646;55.930;2022-10-31T00:03:21;97864.94;;;3.83;99.51
60101;BME280;45978;53.646;55.930;2022-10-31T00:04:23;97870.84;;;3.88;99.21
60101;BME280;45978;53.646;55.930;2022-10-31T00:05:24;97877.13;;;3.81;99.08
60101;BME280;45978;53.646;55.930;2022-10-31T00:06:25;97876.81;;;3.90;99.20
60101;BME280;45978;53.646;55.930;2022-10-31T00:07:27;97868.34;;;3.85;99.45
60101;BME280;45978;53.646;55.930;2022-10-31T00:08:28;97866.31;;;3.93;99.33
60101;BME280;45978;53.646;55.930;2022-10-31T00:09:31;97863.72;;;3.93;99.34
60101;BME280;45978;53.646;55.930;2022-10-31T00:10:32;97861.09;;;3.95;99.33
60101;BME280;45978;53.646;55.930;2022-10-31T00:11:33;97852.47;;;3.94;99.73
60101;BME280;45978;53.646;55.930;2022-10-31T00:12:35;97867.94;;;3.97;99.93
60101;BME280;45978;53.646;55.930;2022-10-31T00:13:37;97849.69;;;3.99;99.50
60101;BME280;45978;53.646;55.930;2022-10-31T00:14:41;97857.22;;;4.07;100.00
60101;BME280;45978;53.646;55.930;2022-10-31T00:15:43;97834.06;;;4.01;100.00
60101;BME280;45978;53.646;55.930;2022-10-31T00:16:45;97850.41;;;4.04;100.00
60101;BME280;45978;53.646;55.930;2022-10-31T00:17:46;97863.28;;;4.07;100.00
60101;BME280;45978;53.646;55.930;2022-10-31T00:18:51;97858.72;;;4.14;100.00
60101;BME280;45978;53.646;55.930;2022-10-31T00:19:53;97873.28;;;4.18;100.00
60101;BME280;45978;53.646;55.930;2022-10-31T00:20:59;97849.16;;;4.14;100.00
60101;BME280;45978;53.646;55.930;2022-10-31T00:22:01;97860.34;;;4.16;100.00
60101;BME280;45978;53.646;55.930;2022-10-31T00:23:03;97838.81;;;4.13;99.98
60101;BME280;45978;53.646;55.930;2022-10-31T00:24:06;97851.44;;;4.24;100.00
60101;BME280;45978;53.646;55.930;2022-10-31T00:25:07;97850.53;;;4.25;100.00
60101;BME280;45978;53.646;55.930;2022-10-31T00:26:11;97853.22;;;4.23;100.00
60101;BME280;45978;53.646;55.930;2022-10-31T00:27:13;97861.00;;;4.23;100.00
60101;BME280;45978;53.646;55.930;2022-10-31T00:28:15;97847.66;;;4.32;100.00
60101;BME280;45978;53.646;55.930;2022-10-31T00:29:17;97847.66;;;4.32;100.00
60101;BME280;45978;53.646;55.930;2022-10-31T00:30:18;97845.03;;;4.34;100.00
60101;BME280;45978;53.646;55.930;2022-10-31T00:31:20;97830.34;;;4.33;100.00
60101;BME280;45978;53.646;55.930;2022-10-31T00:32:21;97837.19;;;4.35;100.00
60101;BME280;45978;53.646;55.930;2022-10-31T00:33:22;97835.25;;;4.41;100.00
60101;BME280;45978;53.646;55.930;2022-10-31T00:34:24;97842.78;;;4.48;100.00
60101;BME280;45978;53.646;55.930;2022-10-31T00:35:26;97829.69;;;4.51;100.00
60101;BME280;45978;53.646;55.930;2022-10-31T00:36:28;97835.66;;;4.53;100.00
60101;BME280;45978;53.646;55.930;2022-10-31T00:37:29;97833.00;;;4.55;100.00
60101;BME280;45978;53.646;55.930;2022-10-31T00:38:32;97839.78;;;4.59;100.00
60101;BME280;45978;53.646;55.930;2022-10-31T00:39:37;97844.88;;;4.62;100.00
60101;BME280;45978;53.646;55.930;2022-10-31T00:40:38;97834.38;;;4.65;100.00
60101;BME280;45978;53.646;55.930;2022-10-31T00:41:40;97836.06;;;4.66;100.00
60101;BME280;45978;53.646;55.930;2022-10-31T00:42:46;97834.19;;;4.70;100.00
60101;BME280;45978;53.646;55.930;2022-10-31T00:43:48;97823.88;;;4.68;100.00
60101;BME280;45978;53.646;55.930;2022-10-31T00:44:49;97831.25;;;4.79;100.00
60101;BME280;45978;53.646;55.930;2022-10-31T00:45:51;97877.94;;;4.82;100.00
60101;BME280;45978;53.646;55.930;2022-10-31T00:46:54;97836.34;;;4.82;100.00
60101;BME280;45978;53.646;55.930;2022-10-31T00:47:56;97825.81;;;4.85;100.00
60101;BME280;45978;53.646;55.930;2022-10-31T00:48:57;97842.03;;;4.92;100.00
60101;BME280;45978;53.646;55.930;2022-10-31T00:49:58;97831.94;;;4.84;99.93
60101;BME280;45978;53.646;55.930;2022-10-31T00:51:00;97841.25;;;4.90;100.00
60101;BME280;45978;53.646;55.930;2022-10-31T00:52:01;97836.94;;;4.89;100.00
60101;BME280;45978;53.646;55.930;2022-10-31T00:53:02;97832.47;;;4.92;99.99
60101;BME280;45978;53.646;55.930;2022-10-31T00:54:04;97835.19;;;4.89;100.00
60101;BME280;45978;53.646;55.930;2022-10-31T00:55:05;97829.75;;;4.95;100.00
60101;BME280;45978;53.646;55.930;2022-10-31T00:56:07;97823.09;;;4.88;100.00
60101;BME280;45978;53.646;55.930;2022-10-31T00:57:09;97832.81;;;4.83;100.00
60101;BME280;45978;53.646;55.930;2022-10-31T00:58:10;97821.41;;;4.87;100.00
60101;BME280;45978;53.646;55.930;2022-10-31T00:59:12;97823.59;;;4.98;100.00
60101;BME280;45978;53.646;55.930;2022-10-31T01:00:14;97837.44;;;4.99;100.00
60101;BME280;45978;53.646;55.930;2022-10-31T01:01:16;97821.16;;;4.93;100.00
60101;BME280;45978;53.646;55.930;2022-10-31T01:02:18;97816.69;;;4.97;100.00
60101;BME280;45978;53.646;55.930;2022-10-31T01:03:19;97820.13;;;4.97;100.00
60101;BME280;45978;53.646;55.930;2022-10-31T01:04:20;97828.06;;;4.94;100.00
60101;BME280;45978;53.646;55.930;2022-10-31T01:05:23;97817.47;;;4.99;99.93
60101;BME280;45978;53.646;55.930;2022-10-31T01:06:25;97807.06;;;4.99;100.00
60101;BME280;45978;53.646;55.930;2022-10-31T01:07:27;97807.81;;;5.03;100.00
60101;BME280;45978;53.646;55.930;2022-10-31T01:08:29;97786.50;;;4.93;100.00
60101;BME280;45978;53.646;55.930;2022-10-31T01:09:30;97817.38;;;5.02;100.00
60101;BME280;45978;53.646;55.930;2022-10-31T01:10:34;97791.59;;;4.96;100.00
60101;BME280;45978;53.646;55.930;2022-10-31T01:11:35;97786.41;;;4.96;100.00
60101;BME280;45978;53.646;55.930;2022-10-31T01:12:45;97789.53;;;5.04;100.00
60101;BME280;45978;53.646;55.930;2022-10-31T01:13:51;97797.41;;;5.03;100.00
60101;BME280;45978;53.646;55.930;2022-10-31T01:14:52;97799.28;;;4.99;100.00
60101;BME280;45978;53.646;55.930;2022-10-31T01:15:55;97801.78;;;5.02;100.00
60101;BME280;45978;53.646;55.930;2022-10-31T01:16:56;97796.72;;;4.97;100.00
60101;BME280;45978;53.646;55.930;2022-10-31T01:17:58;97807.13;;;4.97;100.00
60101;BME280;45978;53.646;55.930;2022-10-31T01:19:00;97803.69;;;4.97;100.00
60101;BME280;45978;53.646;55.930;2022-10-31T01:20:03;97802.41;;;5.07;100.00
60101;BME280;45978;53.646;55.930;2022-10-31T01:21:08;97797.47;;;5.01;100.00
60101;BME280;45978;53.646;55.930;2022-10-31T01:22:10;97792.09;;;5.06;100.00
60101;BME280;45978;53.646;55.930;2022-10-31T01:23:11;97795.03;;;4.96;100.00
60101;BME280;45978;53.646;55.930;2022-10-31T01:24:12;97788.56;;;5.07;100.00
60101;BME280;45978;53.646;55.930;2022-10-31T01:25:16;97795.47;;;5.08;100.00
60101;BME280;45978;53.646;55.930;2022-10-31T01:26:20;97796.19;;;5.11;100.00
60101;BME280;45978;53.646;55.930;2022-10-31T01:27:21;97801.53;;;5.08;100.00
60101;BME280;45978;53.646;55.930;2022-10-31T01:28:22;97784.34;;;5.04;99.97
60101;BME280;45978;53.646;55.930;2022-10-31T01:29:24;97797.06;;;5.12;100.00
60101;BME280;45978;53.646;55.930;2022-10-31T01:30:25;97796.19;;;5.11;100.00
60101;BME280;45978;53.646;55.930;2022-10-31T01:31:33;97810.53;;;5.22;99.95
60101;BME280;45978;53.646;55.930;2022-10-31T01:32:37;97799.22;;;5.23;99.47
60101;BME280;45978;53.646;55.930;2022-10-31T01:33:38;97791.91;;;5.10;99.57
60101;BME280;45978;53.646;55.930;2022-10-31T01:34:40;97786.50;;;5.15;99.57
60101;BME280;45978;53.646;55.930;2022-10-31T01:35:41;97795.78;;;5.22;99.64
60101;BME280;45978;53.646;55.930;2022-10-31T01:36:45;97814.78;;;5.24;99.36
60101;BME280;45978;53.646;55.930;2022-10-31T01:37:48;97793.38;;;5.18;99.32
60101;BME280;45978;53.646;55.930;2022-10-31T01:38:51;97810.34;;;5.26;99.45
60101;BME280;45978;53.646;55.930;2022-10-31T01:39:54;97770.59;;;5.23;99.46
60101;BME280;45978;53.646;55.930;2022-10-31T01:40:56;97786.34;;;5.20;98.98
60101;BME280;45978;53.646;55.930;2022-10-31T01:41:57;97806.72;;;5.30;99.00
60101;BME280;45978;53.646;55.930;2022-10-31T01:42:58;97787.00;;;5.25;99.40
60101;BME280;45978;53.646;55.930;2022-10-31T01:45:03;97801.50;;;5.30;98.94
60101;BME280;45978;53.646;55.930;2022-10-31T01:46:07;97813.75;;;5.28;98.81
60101;BME280;45978;53.646;55.930;2022-10-31T01:47:15;97802.25;;;5.34;98.46
60101;BME280;45978;53.646;55.930;2022-10-31T01:48:20;97794.13;;;5.42;98.36
60101;BME280;45978;53.646;55.930;2022-10-31T01:49:34;97795.16;;;5.38;98.37
60101;BME280;45978;53.646;55.930;2022-10-31T01:50:37;97788.88;;;5.43;98.17
60101;BME280;45978;53.646;55.930;2022-10-31T01:51:46;97805.63;;;5.36;98.05
60101;BME280;45978;53.646;55.930;2022-10-31T01:52:50;97796.91;;;5.37;97.77
60101;BME280;45978;53.646;55.930;2022-10-31T01:53:56;97790.59;;;5.43;97.93
60101;BME280;45978;53.646;55.930;2022-10-31T01:55:07;97791.47;;;5.43;97.79
60101;BME280;45978;53.646;55.930;2022-10-31T01:56:13;97782.00;;;5.41;97.72
60101;BME280;45978;53.646;55.930;2022-10-31T01:57:19;97795.75;;;5.44;97.49
60101;BME280;45978;53.646;55.930;2022-10-31T01:58:26;97792.25;;;5.45;97.33
60101;BME280;45978;53.646;55.930;2022-10-31T01:59:30;97794.84;;;5.45;97.59
60101;BME280;45978;53.646;55.930;2022-10-31T02:00:39;97777.06;;;5.34;97.39
60101;BME280;45978;53.646;55.930;2022-10-31T02:01:41;97780.13;;;5.44;97.22
60101;BME280;45978;53.646;55.930;2022-10-31T02:02:45;97780.31;;;5.40;97.30
60101;BME280;45978;53.646;55.930;2022-10-31T02:03:48;97777.00;;;5.36;97.81
60101;BME280;45978;53.646;55.930;2022-10-31T02:04:49;97777.72;;;5.40;97.60
60101;BME280;45978;53.646;55.930;2022-10-31T02:05:54;97801.88;;;5.43;97.65
60101;BME280;45978;53.646;55.930;2022-10-31T02:07:02;97810.22;;;5.51;97.45
60101;BME280;45978;53.646;55.930;2022-10-31T02:09:10;97786.16;;;5.45;97.77
60101;BME280;45978;53.646;55.930;2022-10-31T02:10:14;97812.19;;;5.45;97.60
60101;BME280;45978;53.646;55.930;2022-10-31T02:11:16;97792.16;;;5.47;97.77
60101;BME280;45978;53.646;55.930;2022-10-31T02:12:17;97783.19;;;5.54;97.45
60101;BME280;45978;53.646;55.930;2022-10-31T02:13:21;97781.75;;;5.47;97.62
60101;BME280;45978;53.646;55.930;2022-10-31T02:14:26;97801.47;;;5.52;97.32
60101;BME280;45978;53.646;55.930;2022-10-31T02:15:31;97762.16;;;5.38;97.22
60101;BME280;45978;53.646;55.930;2022-10-31T02:16:41;97764.88;;;5.35;97.22
60101;BME280;45978;53.646;55.930;2022-10-31T02:17:43;97768.03;;;5.43;97.24
60101;BME280;45978;53.646;55.930;2022-10-31T02:18:44;97767.00;;;5.47;97.55
60101;BME280;45978;53.646;55.930;2022-10-31T02:19:57;97782.22;;;5.56;97.58
60101;BME280;45978;53.646;55.930;2022-10-31T02:25:51;97777.16;;;5.53;97.46
60101;BME280;45978;53.646;55.930;2022-10-31T02:27:27;97778.78;;;5.56;97.57
60101;BME280;45978;53.646;55.930;2022-10-31T02:30:05;97765.44;;;5.43;97.62
60101;BME280;45978;53.646;55.930;2022-10-31T02:32:48;97754.16;;;5.43;97.51
60101;BME280;45978;53.646;55.930;2022-10-31T02:34:05;97763.47;;;5.48;97.53
60101;BME280;45978;53.646;55.930;2022-10-31T02:36:41;97781.19;;;5.61;97.87
60101;BME280;45978;53.646;55.930;2022-10-31T02:39:17;97788.41;;;5.54;98.02
60101;BME280;45978;53.646;55.930;2022-10-31T02:40:26;97785.03;;;5.52;98.35
60101;BME280;45978;53.646;55.930;2022-10-31T02:42:09;97788.56;;;5.51;99.10
60101;BME280;45978;53.646;55.930;2022-10-31T02:43:37;97769.88;;;5.41;99.02
60101;BME280;45978;53.646;55.930;2022-10-31T02:44:49;97797.19;;;5.51;98.94
60101;BME280;45978;53.646;55.930;2022-10-31T02:47:33;97753.47;;;5.39;99.55
60101;BME280;45978;53.646;55.930;2022-10-31T02:48:39;97788.47;;;5.52;99.45
60101;BME280;45978;53.646;55.930;2022-10-31T02:50:59;97762.94;;;5.40;99.25
60101;BME280;45978;53.646;55.930;2022-10-31T02:52:02;97773.94;;;5.47;99.30
60101;BME280;45978;53.646;55.930;2022-10-31T02:53:16;97769.47;;;5.50;99.56
60101;BME280;45978;53.646;55.930;2022-10-31T02:54:25;97773.78;;;5.51;99.58
60101;BME280;45978;53.646;55.930;2022-10-31T02:56:33;97762.94;;;5.40;99.90
60101;BME280;45978;53.646;55.930;2022-10-31T02:57:35;97767.84;;;5.48;100.00
60101;BME280;45978;53.646;55.930;2022-10-31T02:58:40;97769.78;;;5.43;100.00
60101;BME280;45978;53.646;55.930;2022-10-31T02:59:48;97759.44;;;5.41;100.00
60101;BME280;45978;53.646;55.930;2022-10-31T03:02:40;97768.41;;;5.54;100.00
60101;BME280;45978;53.646;55.930;2022-10-31T03:03:49;97771.28;;;5.48;100.00
60101;BME280;45978;53.646;55.930;2022-10-31T03:05:20;97786.25;;;5.43;100.00
60101;BME280;45978;53.646;55.930;2022-10-31T03:06:30;97773.03;;;5.48;100.00
60101;BME280;45978;53.646;55.930;2022-10-31T03:08:03;97773.03;;;5.48;100.00
60101;BME280;45978;53.646;55.930;2022-10-31T03:09:41;97768.56;;;5.51;100.00
60101;BME280;45978;53.646;55.930;2022-10-31T03:10:59;97777.41;;;5.47;100.00
60101;BME280;45978;53.646;55.930;2022-10-31T03:14:40;97788.78;;;5.45;100.00
60101;BME280;45978;53.646;55.930;2022-10-31T03:15:49;97780.81;;;5.49;100.00
60101;BME280;45978;53.646;55.930;2022-10-31T03:16:53;97779.81;;;5.52;100.00
60101;BME280;45978;53.646;55.930;2022-10-31T03:19:16;97787.56;;;5.53;100.00
60101;BME280;45978;53.646;55.930;2022-10-31T03:20:24;97773.88;;;5.48;100.00
60101;BME280;45978;53.646;55.930;2022-10-31T03:21:50;97778.97;;;5.51;100.00
60101;BME280;45978;53.646;55.930;2022-10-31T03:23:02;97781.59;;;5.51;100.00
60101;BME280;45978;53.646;55.930;2022-10-31T03:24:06;97780.00;;;5.47;100.00
60101;BME280;45978;53.646;55.930;2022-10-31T03:25:09;97774.59;;;5.52;100.00
60101;BME280;45978;53.646;55.930;2022-10-31T03:26:15;97771.22;;;5.50;100.00
60101;BME280;45978;53.646;55.930;2022-10-31T03:27:21;97781.53;;;5.53;100.00
60101;BME280;45978;53.646;55.930;2022-10-31T03:28:29;97782.47;;;5.50;100.00
60101;BME280;45978;53.646;55.930;2022-10-31T03:29:35;97781.59;;;5.51;100.00
60101;BME280;45978;53.646;55.930;2022-10-31T03:30:42;97778.78;;;5.56;100.00
60101;BME280;45978;53.646;55.930;2022-10-31T03:31:49;97757.47;;;5.46;100.00
60101;BME280;45978;53.646;55.930;2022-10-31T03:32:54;97781.31;;;5.58;100.00
60101;BME280;45978;53.646;55.930;2022-10-31T03:33:58;97779.63;;;5.56;100.00
60101;BME280;45978;53.646;55.930;2022-10-31T03:35:05;97785.59;;;5.59;100.00
60101;BME280;45978;53.646;55.930;2022-10-31T03:36:10;97753.91;;;5.49;100.00
60101;BME280;45978;53.646;55.930;2022-10-31T03:37:18;97792.41;;;5.63;100.00
60101;BME280;45978;53.646;55.930;2022-10-31T03:38:21;97769.09;;;5.60;100.00
60101;BME280;45978;53.646;55.930;2022-10-31T03:39:25;97772.53;;;5.60;100.00
60101;BME280;45978;53.646;55.930;2022-10-31T03:40:31;97765.28;;;5.46;100.00
60101;BME280;45978;53.646;55.930;2022-10-31T03:41:42;97787.97;;;5.65;100.00
60101;BME280;45978;53.646;55.930;2022-10-31T03:42:57;97777.94;;;5.55;100.00
60101;BME280;45978;53.646;55.930;2022-10-31T03:44:11;97770.38;;;5.49;100.00
60101;BME280;45978;53.646;55.930;2022-10-31T03:45:22;97780.53;;;5.55;100.00
60101;BME280;45978;53.646;55.930;2022-10-31T03:46:25;97795.84;;;5.63;100.00
60101;BME280;45978;53.646;55.930;2022-10-31T03:47:29;97789.59;;;5.67;100.00
60101;BME280;45978;53.646;55.930;2022-10-31T03:48:31;97778.47;;;5.64;100.00
60101;BME280;45978;53.646;55.930;2022-10-31T03:49:33;97791.09;;;5.73;100.00
60101;BME280;45978;53.646;55.930;2022-10-31T03:50:49;97792.16;;;5.69;100.00
60101;BME280;45978;53.646;55.930;2022-10-31T03:52:04;97784.50;;;5.64;100.00
60101;BME280;45978;53.646;55.930;2022-10-31T03:53:14;97794.53;;;5.73;100.00
60101;BME280;45978;53.646;55.930;2022-10-31T03:54:32;97803.13;;;5.75;100.00
60101;BME280;45978;53.646;55.930;2022-10-31T03:55:52;97796.25;;;5.74;100.00
60101;BME280;45978;53.646;55.930;2022-10-31T03:58:34;97788.22;;;5.79;100.00
60101;BME280;45978;53.646;55.930;2022-10-31T03:59:54;97794.94;;;5.85;100.00
60101;BME280;45978;53.646;55.930;2022-10-31T04:01:01;97779.75;;;5.74;100.00
60101;BME280;45978;53.646;55.930;2022-10-31T04:02:10;97806.19;;;5.85;100.00
60101;BME280;45978;53.646;55.930;2022-10-31T04:03:21;97793.38;;;5.81;100.00
60101;BME280;45978;53.646;55.930;2022-10-31T04:04:26;97794.22;;;5.81;100.00
60101;BME280;45978;53.646;55.930;2022-10-31T04:05:30;97796.78;;;5.83;100.00
60101;BME280;45978;53.646;55.930;2022-10-31T04:06:37;97804.63;;;5.81;100.00
60101;BME280;45978;53.646;55.930;2022-10-31T04:07:43;97795.00;;;5.83;100.00
60101;BME280;45978;53.646;55.930;2022-10-31T04:08:52;97797.50;;;5.86;100.00
60101;BME280;45978;53.646;55.930;2022-10-31T04:09:56;97802.03;;;5.81;100.00
60101;BME280;45978;53.646;55.930;2022-10-31T04:11:00;97808.59;;;5.90;100.00
60101;BME280;45978;53.646;55.930;2022-10-31T04:12:06;97809.53;;;5.89;100.00
60101;BME280;45978;53.646;55.930;2022-10-31T04:13:37;97808.69;;;5.88;100.00
60101;BME280;45978;53.646;55.930;2022-10-31T04:14:47;97799.84;;;5.92;100.00
60101;BME280;45978;53.646;55.930;2022-10-31T04:15:54;97807.69;;;5.91;100.00
60101;BME280;45978;53.646;55.930;2022-10-31T04:16:57;97780.09;;;5.87;100.00
60101;BME280;45978;53.646;55.930;2022-10-31T04:18:09;97797.13;;;5.94;100.00
60101;BME280;45978;53.646;55.930;2022-10-31T04:19:12;97801.41;;;5.97;100.00
60101;BME280;45978;53.646;55.930;2022-10-31T04:20:17;97790.25;;;5.93;100.00
60101;BME280;45978;53.646;55.930;2022-10-31T04:21:18;97776.78;;;5.83;100.00
60101;BME280;45978;53.646;55.930;2022-10-31T04:22:20;97773.44;;;5.80;100.00
60101;BME280;45978;53.646;55.930;2022-10-31T04:23:24;97801.38;;;5.98;100.00
60101;BME280;45978;53.646;55.930;2022-10-31T04:24:28;97803.03;;;5.99;100.00
60101;BME280;45978;53.646;55.930;2022-10-31T04:25:32;97793.34;;;6.03;100.00
60101;BME280;45978;53.646;55.930;2022-10-31T04:26:40;97774.75;;;5.90;100.00
60101;BME280;45978;53.646;55.930;2022-10-31T04:27:42;97775.06;;;5.82;100.00
60101;BME280;45978;53.646;55.930;2022-10-31T04:28:44;97790.00;;;5.99;100.00
60101;BME280;45978;53.646;55.930;2022-10-31T04:29:46;97792.63;;;5.99;100.00
60101;BME280;45978;53.646;55.930;2022-10-31T04:30:48;97781.59;;;5.92;100.00
60101;BME280;45978;53.646;55.930;2022-10-31T04:31:51;97795.09;;;6.02;100.00
60101;BME280;45978;53.646;55.930;2022-10-31T04:32:54;97794.31;;;6.00;100.00
60101;BME280;45978;53.646;55.930;2022-10-31T04:33:56;97778.69;;;6.00;100.00
60101;BME280;45978;53.646;55.930;2022-10-31T04:34:57;97793.41;;;6.01;100.00
60101;BME280;45978;53.646;55.930;2022-10-31T04:35:59;97794.25;;;6.02;100.00
60101;BME280;45978;53.646;55.930;2022-10-31T04:37:02;97790.72;;;6.03;100.00
60101;BME280;45978;53.646;55.930;2022-10-31T04:38:06;97788.34;;;5.98;100.00
60101;BME280;45978;53.646;55.930;2022-10-31T04:39:10;97764.19;;;5.93;100.00
60101;BME280;45978;53.646;55.930;2022-10-31T04:40:32;97794.91;;;6.07;100.00
60101;BME280;45978;53.646;55.930;2022-10-31T04:42:11;97776.94;;;6.01;100.00
60101;BME280;45978;53.646;55.930;2022-10-31T04:43:14;97799.84;;;6.13;100.00
60101;BME280;45978;53.646;55.930;2022-10-31T04:44:21;97802.50;;;6.11;100.00
60101;BME280;45978;53.646;55.930;2022-10-31T04:45:25;97792.34;;;6.05;100.00
60101;BME280;45978;53.646;55.930;2022-10-31T04:46:29;97805.00;;;6.14;100.00
60101;BME280;45978;53.646;55.930;2022-10-31T04:47:35;97803.28;;;6.13;100.00
60101;BME280;45978;53.646;55.930;2022-10-31T04:48:36;97787.97;;;6.06;100.00
60101;BME280;45978;53.646;55.930;2022-10-31T04:49:42;97796.78;;;6.03;100.00
60101;BME280;45978;53.646;55.930;2022-10-31T04:50:48;97785.72;;;5.98;100.00
60101;BME280;45978;53.646;55.930;2022-10-31T04:51:52;97804.38;;;6.08;100.00
60101;BME280;45978;53.646;55.930;2022-10-31T04:52:53;97789.97;;;6.01;100.00
60101;BME280;45978;53.646;55.930;2022-10-31T04:53:59;97793.28;;;5.82;100.00
60101;BME280;45978;53.646;55.930;2022-10-31T04:55:15;97811.69;;;6.00;100.00
60101;BME280;45978;53.646;55.930;2022-10-31T04:56:50;97806.38;;;6.03;100.00
60101;BME280;45978;53.646;55.930;2022-10-31T04:58:00;97798.59;;;6.01;100.00
60101;BME280;45978;53.646;55.930;2022-10-31T04:59:07;97818.34;;;6.07;100.00
60101;BME280;45978;53.646;55.930;2022-10-31T05:00:23;97826.38;;;6.02;100.00
60101;BME280;45978;53.646;55.930;2022-10-31T05:01:30;97816.78;;;6.03;100.00
60101;BME280;45978;53.646;55.930;2022-10-31T05:02:49;97816.63;;;6.06;100.00
60101;BME280;45978;53.646;55.930;2022-10-31T05:03:53;97812.41;;;6.03;100.00
60101;BME280;45978;53.646;55.930;2022-10-31T05:04:54;97806.22;;;6.06;100.00
60101;BME280;45978;53.646;55.930;2022-10-31T05:05:58;97804.03;;;5.97;100.00
60101;BME280;45978;53.646;55.930;2022-10-31T05:07:03;97822.78;;;6.05;100.00
60101;BME280;45978;53.646;55.930;2022-10-31T05:08:06;97815.03;;;6.03;100.00
60101;BME280;45978;53.646;55.930;2022-10-31T05:09:08;97822.78;;;6.05;100.00
60101;BME280;45978;53.646;55.930;2022-10-31T05:10:23;97826.28;;;6.04;100.00
60101;BME280;45978;53.646;55.930;2022-10-31T05:11:27;97820.94;;;6.07;100.00
60101;BME280;45978;53.646;55.930;2022-10-31T05:12:37;97824.44;;;6.06;100.00
60101;BME280;45978;53.646;55.930;2022-10-31T05:13:40;97812.41;;;6.03;100.00
60101;BME280;45978;53.646;55.930;2022-10-31T05:14:46;97817.69;;;6.02;100.00
60101;BME280;45978;53.646;55.930;2022-10-31T05:16:20;97825.94;;;6.11;100.00
60101;BME280;45978;53.646;55.930;2022-10-31T05:17:25;97831.16;;;6.11;100.00
60101;BME280;45978;53.646;55.930;2022-10-31T05:19:03;97815.84;;;6.04;100.00
60101;BME280;45978;53.646;55.930;2022-10-31T05:20:26;97812.41;;;6.03;100.00
60101;BME280;45978;53.646;55.930;2022-10-31T05:21:48;97822.72;;;6.06;100.00
60101;BME280;45978;53.646;55.930;2022-10-31T05:22:55;97823.44;;;6.10;100.00
60101;BME280;45978;53.646;55.930;2022-10-31T05:23:58;97810.47;;;6.08;100.00
60101;BME280;45978;53.646;55.930;2022-10-31T05:25:00;97789.53;;;5.89;100.00
60101;BME280;45978;53.646;55.930;2022-10-31T05:26:04;97831.03;;;6.14;100.00
60101;BME280;45978;53.646;55.930;2022-10-31T05:27:08;97818.47;;;6.04;100.00
60101;BME280;45978;53.646;55.930;2022-10-31T05:28:09;97822.38;;;6.14;100.00
60101;BME280;45978;53.646;55.930;2022-10-31T05:29:11;97828.44;;;6.14;100.00
60101;BME280;45978;53.646;55.930;2022-10-31T05:30:15;97815.34;;;6.16;100.00
60101;BME280;45978;53.646;55.930;2022-10-31T05:31:19;97807.00;;;6.08;100.00
60101;BME280;45978;53.646;55.930;2022-10-31T05:32:24;97816.41;;;6.12;100.00
60101;BME280;45978;53.646;55.930;2022-10-31T05:33:48;97823.34;;;6.11;100.00
60101;BME280;45978;53.646;55.930;2022-10-31T05:35:11;97831.94;;;6.13;100.00
60101;BME280;45978;53.646;55.930;2022-10-31T05:36:47;97832.03;;;6.12;100.00
60101;BME280;45978;53.646;55.930;2022-10-31T05:37:56;97818.22;;;6.10;100.00
60101;BME280;45978;53.646;55.930;2022-10-31T05:39:00;97830.06;;;6.17;100.00
60101;BME280;45978;53.646;55.930;2022-10-31T05:40:11;97819.91;;;6.11;100.00
60101;BME280;45978;53.646;55.930;2022-10-31T05:41:13;97818.22;;;6.10;100.00
60101;BME280;45978;53.646;55.930;2022-10-31T05:42:44;97828.28;;;6.18;100.00
60101;BME280;45978;53.646;55.930;2022-10-31T05:43:49;97822.19;;;6.19;100.00
60101;BME280;45978;53.646;55.930;2022-10-31T05:44:54;97833.66;;;6.14;100.00
60101;BME280;45978;53.646;55.930;2022-10-31T05:46:01;97814.81;;;6.08;100.00
60101;BME280;45978;53.646;55.930;2022-10-31T05:47:23;97815.25;;;6.18;100.00
60101;BME280;45978;53.646;55.930;2022-10-31T05:48:49;97819.38;;;6.23;100.00
60101;BME280;45978;53.646;55.930;2022-10-31T05:50:11;97821.19;;;6.21;100.00
60101;BME280;45978;53.646;55.930;2022-10-31T05:51:36;97814.25;;;6.22;100.00
60101;BME280;45978;53.646;55.930;2022-10-31T05:52:38;97819.56;;;6.19;100.00
60101;BME280;45978;53.646;55.930;2022-10-31T05:53:49;97798.41;;;6.06;100.00
60101;BME280;45978;53.646;55.930;2022-10-31T05:54:52;97797.38;;;6.10;100.00
60101;BME280;45978;53.646;55.930;2022-10-31T05:55:54;97797.03;;;6.18;100.00
60101;BME280;45978;53.646;55.930;2022-10-31T05:56:57;97812.31;;;6.25;100.00
60101;BME280;45978;53.646;55.930;2022-10-31T05:58:03;97815.03;;;6.24;100.00
60101;BME280;45978;53.646;55.930;2022-10-31T05:59:10;97804.78;;;6.19;100.00
60101;BME280;45978;53.646;55.930;2022-10-31T06:00:13;97793.72;;;6.14;100.00
60101;BME280;45978;53.646;55.930;2022-10-31T06:01:22;97803.00;;;6.20;100.00
60101;BME280;45978;53.646;55.930;2022-10-31T06:02:23;97793.28;;;6.04;100.00
60101;BME280;45978;53.646;55.930;2022-10-31T06:03:43;97777.72;;;6.03;100.00
60101;BME280;45978;53.646;55.930;2022-10-31T06:04:44;97809.38;;;6.14;100.00
60101;BME280;45978;53.646;55.930;2022-10-31T06:05:46;97800.00;;;6.10;100.00
60101;BME280;45978;53.646;55.930;2022-10-31T06:06:47;97820.75;;;6.11;100.00
60101;BME280;45978;53.646;55.930;2022-10-31T06:07:50;97801.78;;;6.08;100.00
60101;BME280;45978;53.646;55.930;2022-10-31T06:08:51;97797.72;;;6.02;100.00
60101;BME280;45978;53.646;55.930;2022-10-31T06:10:01;97798.28;;;6.09;100.00
60101;BME280;45978;53.646;55.930;2022-10-31T06:11:07;97802.38;;;6.14;100.00
60101;BME280;45978;53.646;55.930;2022-10-31T06:12:31;97813.53;;;6.18;100.00
60101;BME280;45978;53.646;55.930;2022-10-31T06:14:02;97805.63;;;6.20;100.00